createdAt,value
2023-09-14T00:04:04.706Z,19.79
2023-09-14T00:08:47.423Z,19.79
2023-09-14T00:13:30.171Z,20.8
2023-09-14T00:18:12.949Z,20.8
2023-09-14T00:22:55.610Z,20.6
2023-09-14T00:27:38.380Z,21.1
2023-09-14T00:32:21.076Z,20.4
2023-09-14T00:37:03.170Z,20.4
2023-09-14T00:41:45.830Z,19.9
2023-09-14T00:51:11.292Z,20.6
2023-09-14T00:55:54.004Z,20.8
2023-09-14T01:00:36.771Z,21.4
2023-09-14T01:05:19.464Z,22.4
2023-09-14T01:10:02.176Z,20.29
2023-09-14T01:14:44.964Z,21.9
2023-09-14T01:19:27.701Z,22.5
2023-09-14T01:24:10.431Z,21.2
2023-09-14T01:28:53.134Z,20.7
2023-09-14T01:33:35.842Z,22.2
2023-09-14T01:38:18.612Z,20.1
2023-09-14T01:43:01.295Z,19.29
2023-09-14T01:47:44.033Z,19.4
2023-09-14T01:52:26.769Z,18.6
2023-09-14T02:01:52.253Z,20.7
2023-09-14T02:06:35.021Z,23.3
2023-09-14T02:11:17.712Z,19.79
2023-09-14T02:16:00.434Z,21.3
2023-09-14T02:20:43.147Z,22.1
2023-09-14T02:25:25.897Z,21.2
2023-09-14T02:30:08.623Z,18.6
2023-09-14T02:34:51.336Z,21.3
2023-09-14T02:39:34.107Z,19.79
2023-09-14T02:44:16.150Z,19.2
2023-09-14T02:48:58.846Z,19.2
2023-09-14T02:53:41.613Z,19.2
2023-09-14T02:58:23.573Z,19.7
2023-09-14T03:03:06.308Z,19.6
2023-09-14T03:12:31.813Z,17.79
2023-09-14T03:17:14.520Z,19.29
2023-09-14T03:21:57.289Z,18.29
2023-09-14T03:26:40.074Z,19.4
2023-09-14T03:31:22.693Z,18.79
2023-09-14T03:36:05.418Z,18.4
2023-09-14T03:40:48.225Z,19.9
2023-09-14T03:45:30.908Z,19.5
2023-09-14T03:50:13.612Z,20.8
2023-09-14T03:54:56.361Z,22.5
2023-09-14T03:59:39.123Z,20.2
2023-09-14T04:04:21.817Z,19.79
2023-09-14T04:09:03.811Z,19.29
2023-09-14T04:13:46.547Z,19.4
2023-09-14T04:23:12.023Z,21.9
2023-09-14T04:27:54.784Z,23.3
2023-09-14T04:32:37.471Z,21.4
2023-09-14T04:37:20.195Z,21.3
2023-09-14T04:42:02.951Z,20.2
2023-09-14T04:46:45.647Z,20.8
2023-09-14T04:51:28.382Z,21.5
2023-09-14T04:56:11.122Z,19.7
2023-09-14T05:00:52.931Z,20.2
2023-09-14T05:05:34.510Z,24
2023-09-14T05:10:17.005Z,21.6
2023-09-14T05:14:59.517Z,21.4
2023-09-14T05:24:24.515Z,20.5
2023-09-14T05:29:07.020Z,18.9
2023-09-14T05:33:49.417Z,20
2023-09-14T05:38:31.895Z,18.29
2023-09-14T05:43:14.423Z,17.4
2023-09-14T05:47:56.924Z,19.79
2023-09-14T05:52:39.420Z,17.9
2023-09-14T05:57:21.915Z,17.79
2023-09-14T06:02:04.319Z,17.2
2023-09-14T06:11:29.353Z,15.8
2023-09-14T06:16:11.813Z,17
2023-09-14T06:20:54.372Z,13.8
2023-09-14T06:25:36.811Z,16.5
2023-09-14T06:30:19.315Z,14.2
2023-09-14T06:35:01.711Z,14.3
2023-09-14T06:39:44.221Z,14.7
2023-09-14T06:49:09.217Z,16.9
2023-09-14T06:58:34.214Z,14.1
2023-09-14T07:03:16.608Z,15.1
2023-09-14T07:07:59.114Z,15.4
2023-09-14T07:12:41.612Z,13.8
2023-09-14T07:17:24.062Z,12.7
2023-09-14T07:22:06.805Z,14.7
2023-09-14T07:26:49.114Z,14
2023-09-14T07:31:30.716Z,14.8
2023-09-14T07:36:13.213Z,14.1
2023-09-14T07:45:38.112Z,13.8
2023-09-14T07:50:19.775Z,12.5
2023-09-14T07:55:02.210Z,12.1
2023-09-14T07:59:44.711Z,11.5
2023-09-14T08:04:27.213Z,12.1
2023-09-14T08:09:09.714Z,11.9
2023-09-14T08:13:52.217Z,13.2
2023-09-14T08:18:34.672Z,12.6
2023-09-14T08:23:17.117Z,12.3
2023-09-14T08:32:42.116Z,12.5
2023-09-14T08:37:24.617Z,12.4
2023-09-14T08:42:07.178Z,12.1
2023-09-14T08:46:48.770Z,12.8
2023-09-14T08:51:30.302Z,12.6
2023-09-14T08:56:12.801Z,11.4
2023-09-14T09:00:55.304Z,12.1
2023-09-14T09:05:37.810Z,10.5
2023-09-14T09:10:20.295Z,8.7
2023-09-14T09:19:45.204Z,10.2
2023-09-14T09:24:27.706Z,7.8
2023-09-14T09:29:10.200Z,9.1
2023-09-14T09:33:52.709Z,9.1
2023-09-14T09:38:35.195Z,9.2
2023-09-14T09:43:17.831Z,9.6
2023-09-14T09:48:00.109Z,9.1
2023-09-14T09:52:42.599Z,14.4
2023-09-14T09:57:25.105Z,6.9
2023-09-14T10:06:49.352Z,7.4
2023-09-14T10:16:14.098Z,6.9
2023-09-14T10:20:56.671Z,6.8
2023-09-14T10:25:39.102Z,6.3
2023-09-14T10:30:21.611Z,5.6
2023-09-14T10:35:04.097Z,4.69
2023-09-14T10:39:46.597Z,5.1
2023-09-14T10:44:29.110Z,3.9
2023-09-14T10:53:54.123Z,5.5
2023-09-14T11:03:19.416Z,6.4
2023-09-14T11:08:01.509Z,5.4
2023-09-14T11:12:44.019Z,7.7
2023-09-14T11:17:26.449Z,6.8
2023-09-14T11:22:09.003Z,5.2
2023-09-14T11:26:51.448Z,4.6
2023-09-14T11:31:33.910Z,4.6
2023-09-14T11:40:59.121Z,4.8
2023-09-14T11:45:41.302Z,4.5
2023-09-14T11:50:23.794Z,4.6
2023-09-14T11:59:48.813Z,3.5
2023-09-14T12:04:31.310Z,3.4
2023-09-14T12:09:13.842Z,4.3
2023-09-14T12:13:56.221Z,4.5
2023-09-14T12:18:38.693Z,3.6
2023-09-14T12:28:03.694Z,3.9
2023-09-14T12:32:46.190Z,4
2023-09-14T12:37:28.696Z,2.9
2023-09-14T12:42:11.215Z,3.6
2023-09-14T12:46:53.601Z,3.6
2023-09-14T12:56:18.913Z,2.9
2023-09-14T13:01:00.829Z,3.6
2023-09-14T13:05:43.585Z,3.1
2023-09-14T13:10:26.315Z,3.4
2023-09-14T13:19:51.807Z,2
2023-09-14T13:24:34.513Z,2.3
2023-09-14T13:29:17.335Z,2.2
2023-09-14T13:34:00.020Z,2.5
2023-09-14T13:38:42.707Z,2.4
2023-09-14T13:43:25.447Z,3.7
2023-09-14T13:52:50.894Z,2.3
2023-09-14T13:57:33.713Z,2.4
2023-09-14T14:02:16.363Z,2.4
2023-09-14T14:06:58.420Z,2.7
2023-09-14T14:11:41.120Z,2.7
2023-09-14T14:16:23.849Z,3.6
2023-09-14T14:21:06.608Z,3
2023-09-14T14:30:32.048Z,2.5
2023-09-14T14:35:14.751Z,3.2
2023-09-14T14:39:57.535Z,2.09
2023-09-14T14:44:40.248Z,2.09
2023-09-14T14:49:23.026Z,2
2023-09-14T14:54:04.830Z,2
2023-09-14T14:58:47.315Z,1.7
2023-09-14T15:03:29.722Z,1.9
2023-09-14T15:08:12.214Z,1.8
2023-09-14T15:17:37.233Z,1.6
2023-09-14T15:27:01.277Z,2.5
2023-09-14T15:36:26.231Z,2.6
2023-09-14T15:41:08.734Z,2.2
2023-09-14T15:45:51.238Z,2.4
2023-09-14T15:55:16.175Z,2.5
2023-09-14T16:04:41.143Z,3.8
2023-09-14T16:14:06.153Z,1.8
2023-09-14T16:18:48.602Z,2.09
2023-09-14T16:23:31.072Z,1.9
2023-09-14T16:28:12.756Z,2.6
2023-09-14T16:32:55.255Z,2.5
2023-09-14T16:37:37.646Z,2.09
2023-09-14T16:42:20.153Z,1.8
2023-09-14T16:47:02.660Z,2.9
2023-09-14T16:51:45.166Z,1.8
2023-09-14T17:01:09.262Z,2.9
2023-09-14T17:05:50.856Z,2.09
2023-09-14T17:10:33.360Z,3
2023-09-14T17:15:15.807Z,4.19
2023-09-14T17:19:58.354Z,5.2
2023-09-14T17:24:39.929Z,2.5
2023-09-14T17:29:22.470Z,3
2023-09-14T17:34:04.884Z,3.3
2023-09-14T17:38:47.361Z,2.7
2023-09-14T17:48:12.351Z,3.6
2023-09-14T17:52:54.832Z,3.1
2023-09-14T17:57:37.361Z,3.3
2023-09-14T18:02:19.851Z,3.6
2023-09-14T18:07:02.256Z,3.3
2023-09-14T18:11:44.747Z,3.2
2023-09-14T18:16:27.209Z,3
2023-09-14T18:21:09.754Z,4
2023-09-14T18:25:52.254Z,3.4
2023-09-14T18:35:16.360Z,3.9
2023-09-14T18:39:58.852Z,4
2023-09-14T18:44:41.259Z,4.5
2023-09-14T18:49:23.752Z,6
2023-09-14T18:54:06.250Z,4.4
2023-09-14T18:58:48.753Z,5.2
2023-09-14T19:03:31.249Z,4.3
2023-09-14T19:08:13.689Z,4.8
2023-09-14T19:12:56.163Z,4.3
2023-09-14T19:22:20.370Z,4.5
2023-09-14T19:27:01.945Z,4
2023-09-14T19:31:44.449Z,5.1
2023-09-14T19:36:26.847Z,5.8
2023-09-14T19:41:09.353Z,5.7
2023-09-14T19:45:51.840Z,5.7
2023-09-14T19:50:34.443Z,5.1
2023-09-14T19:55:15.924Z,5.1
2023-09-14T19:59:58.447Z,4.4
2023-09-14T20:09:23.375Z,5.3
2023-09-14T20:14:05.844Z,5.6
2023-09-14T20:18:48.348Z,5.9
2023-09-14T20:23:30.845Z,5.5
2023-09-14T20:28:13.347Z,5.9
2023-09-14T20:32:55.845Z,5.9
2023-09-14T20:37:38.341Z,5.7
2023-09-14T20:42:20.777Z,6
2023-09-14T20:47:03.251Z,6
2023-09-14T20:56:28.233Z,6.5
2023-09-14T21:01:10.738Z,7.4
2023-09-14T21:05:53.191Z,5.7
2023-09-14T21:10:34.857Z,7.9
2023-09-14T21:15:17.382Z,18.2
2023-09-14T21:19:59.751Z,5.4
2023-09-14T21:24:42.238Z,6.3
2023-09-14T21:29:24.734Z,7
2023-09-14T21:34:07.226Z,6.8
2023-09-14T21:43:32.237Z,6.4
2023-09-14T21:48:14.739Z,6.8
2023-09-14T21:52:57.141Z,7.1
2023-09-14T21:57:39.637Z,7.5
2023-09-14T22:02:22.152Z,7.1
2023-09-14T22:07:04.584Z,6.6
2023-09-14T22:11:46.239Z,6.8
2023-09-14T22:16:28.735Z,7
2023-09-14T22:21:11.234Z,6.6
2023-09-14T22:30:36.145Z,5.2
2023-09-14T22:35:18.619Z,5.7
2023-09-14T22:40:01.092Z,5.9
2023-09-14T22:44:43.635Z,5.2
2023-09-14T22:49:26.140Z,4.19
2023-09-14T22:54:08.565Z,4.19
2023-09-14T22:58:51.029Z,5
2023-09-14T23:03:33.543Z,4.4
2023-09-14T23:08:16.022Z,5.9
2023-09-14T23:17:40.308Z,5.4
2023-09-14T23:22:22.640Z,4.19
2023-09-14T23:27:05.122Z,4.9
2023-09-14T23:31:47.554Z,4.8
2023-09-14T23:36:30.039Z,5.1
2023-09-14T23:41:12.524Z,4.8
2023-09-14T23:45:55.023Z,5.2
2023-09-14T23:50:37.487Z,5.5
2023-09-14T23:55:19.978Z,5.7
